sensor_id;sensor_type;location;lat;lon;timestamp;P1;durP1;ratioP1;P2;durP2;ratioP2
26106;SDS011;13866;50.748;12.630;2023-08-06T00:01:49;6.93;;;4.50;;
26106;SDS011;13866;50.748;12.630;2023-08-06T00:04:14;3.90;;;3.80;;
26106;SDS011;13866;50.748;12.630;2023-08-06T00:06:40;5.23;;;4.80;;
26106;SDS011;13866;50.748;12.630;2023-08-06T00:09:05;4.37;;;4.03;;
26106;SDS011;13866;50.748;12.630;2023-08-06T00:11:31;4.97;;;4.57;;
26106;SDS011;13866;50.748;12.630;2023-08-06T00:13:57;4.60;;;4.50;;
26106;SDS011;13866;50.748;12.630;2023-08-06T00:16:22;12.13;;;4.80;;
26106;SDS011;13866;50.748;12.630;2023-08-06T00:18:48;4.33;;;4.00;;
26106;SDS011;13866;50.748;12.630;2023-08-06T00:21:13;6.27;;;4.23;;
26106;SDS011;13866;50.748;12.630;2023-08-06T00:23:39;6.93;;;4.00;;
26106;SDS011;13866;50.748;12.630;2023-08-06T00:26:05;5.03;;;4.73;;
26106;SDS011;13866;50.748;12.630;2023-08-06T00:28:31;8.03;;;4.30;;
26106;SDS011;13866;50.748;12.630;2023-08-06T00:30:56;3.93;;;3.83;;
26106;SDS011;13866;50.748;12.630;2023-08-06T00:33:22;4.57;;;4.37;;
26106;SDS011;13866;50.748;12.630;2023-08-06T00:35:48;4.03;;;3.73;;
26106;SDS011;13866;50.748;12.630;2023-08-06T00:38:13;4.70;;;4.40;;
26106;SDS011;13866;50.748;12.630;2023-08-06T00:40:39;5.17;;;4.77;;
26106;SDS011;13866;50.748;12.630;2023-08-06T00:43:05;8.03;;;3.30;;
26106;SDS011;13866;50.748;12.630;2023-08-06T00:45:31;3.80;;;3.60;;
26106;SDS011;13866;50.748;12.630;2023-08-06T00:48:00;6.57;;;4.00;;
26106;SDS011;13866;50.748;12.630;2023-08-06T00:50:26;6.70;;;3.97;;
26106;SDS011;13866;50.748;12.630;2023-08-06T00:52:52;4.17;;;3.97;;
26106;SDS011;13866;50.748;12.630;2023-08-06T00:55:18;4.20;;;3.90;;
26106;SDS011;13866;50.748;12.630;2023-08-06T00:57:44;4.07;;;3.87;;
26106;SDS011;13866;50.748;12.630;2023-08-06T01:00:09;4.13;;;3.97;;
26106;SDS011;13866;50.748;12.630;2023-08-06T01:02:36;8.93;;;3.90;;
26106;SDS011;13866;50.748;12.630;2023-08-06T01:05:02;4.33;;;4.17;;
26106;SDS011;13866;50.748;12.630;2023-08-06T01:07:32;4.47;;;4.37;;
26106;SDS011;13866;50.748;12.630;2023-08-06T01:12:45;4.33;;;3.97;;
26106;SDS011;13866;50.748;12.630;2023-08-06T01:17:47;3.57;;;3.47;;
26106;SDS011;13866;50.748;12.630;2023-08-06T01:20:13;3.90;;;3.63;;
26106;SDS011;13866;50.748;12.630;2023-08-06T01:22:39;6.40;;;5.70;;
26106;SDS011;13866;50.748;12.630;2023-08-06T01:25:04;5.10;;;4.90;;
26106;SDS011;13866;50.748;12.630;2023-08-06T01:27:33;7.23;;;4.60;;
26106;SDS011;13866;50.748;12.630;2023-08-06T01:30:13;4.27;;;4.00;;
26106;SDS011;13866;50.748;12.630;2023-08-06T01:32:50;4.63;;;4.20;;
26106;SDS011;13866;50.748;12.630;2023-08-06T01:35:21;4.97;;;4.57;;
26106;SDS011;13866;50.748;12.630;2023-08-06T01:37:47;4.90;;;4.70;;
26106;SDS011;13866;50.748;12.630;2023-08-06T01:40:13;4.50;;;4.20;;
26106;SDS011;13866;50.748;12.630;2023-08-06T01:42:39;4.60;;;4.37;;
26106;SDS011;13866;50.748;12.630;2023-08-06T01:45:08;4.77;;;4.70;;
26106;SDS011;13866;50.748;12.630;2023-08-06T01:47:34;7.63;;;5.17;;
26106;SDS011;13866;50.748;12.630;2023-08-06T01:50:00;4.60;;;4.40;;
26106;SDS011;13866;50.748;12.630;2023-08-06T01:52:26;4.33;;;4.17;;
26106;SDS011;13866;50.748;12.630;2023-08-06T01:54:52;6.60;;;4.93;;
26106;SDS011;13866;50.748;12.630;2023-08-06T01:57:18;4.10;;;4.10;;
26106;SDS011;13866;50.748;12.630;2023-08-06T01:59:43;3.73;;;3.73;;
26106;SDS011;13866;50.748;12.630;2023-08-06T02:02:09;5.33;;;4.90;;
26106;SDS011;13866;50.748;12.630;2023-08-06T02:04:34;4.43;;;4.23;;
26106;SDS011;13866;50.748;12.630;2023-08-06T02:07:00;5.73;;;5.17;;
26106;SDS011;13866;50.748;12.630;2023-08-06T02:09:25;7.03;;;4.27;;
26106;SDS011;13866;50.748;12.630;2023-08-06T02:11:51;5.00;;;4.70;;
26106;SDS011;13866;50.748;12.630;2023-08-06T02:14:16;4.70;;;4.60;;
26106;SDS011;13866;50.748;12.630;2023-08-06T02:16:42;7.73;;;5.30;;
26106;SDS011;13866;50.748;12.630;2023-08-06T02:19:07;5.00;;;4.80;;
26106;SDS011;13866;50.748;12.630;2023-08-06T02:21:33;6.03;;;5.20;;
26106;SDS011;13866;50.748;12.630;2023-08-06T02:23:58;4.93;;;4.73;;
26106;SDS011;13866;50.748;12.630;2023-08-06T02:26:24;4.90;;;4.70;;
26106;SDS011;13866;50.748;12.630;2023-08-06T02:28:49;3.73;;;3.63;;
26106;SDS011;13866;50.748;12.630;2023-08-06T02:31:15;4.63;;;4.20;;
26106;SDS011;13866;50.748;12.630;2023-08-06T02:33:40;3.83;;;3.73;;
26106;SDS011;13866;50.748;12.630;2023-08-06T02:36:06;4.23;;;4.23;;
26106;SDS011;13866;50.748;12.630;2023-08-06T02:38:31;4.97;;;3.83;;
26106;SDS011;13866;50.748;12.630;2023-08-06T02:40:57;3.13;;;2.93;;
26106;SDS011;13866;50.748;12.630;2023-08-06T02:43:23;2.90;;;2.70;;
26106;SDS011;13866;50.748;12.630;2023-08-06T02:45:48;3.40;;;3.40;;
26106;SDS011;13866;50.748;12.630;2023-08-06T02:48:14;2.90;;;2.80;;
26106;SDS011;13866;50.748;12.630;2023-08-06T02:50:40;3.80;;;3.30;;
26106;SDS011;13866;50.748;12.630;2023-08-06T02:53:06;2.80;;;2.70;;
26106;SDS011;13866;50.748;12.630;2023-08-06T02:55:33;2.70;;;2.50;;
26106;SDS011;13866;50.748;12.630;2023-08-06T02:57:59;2.67;;;2.67;;
26106;SDS011;13866;50.748;12.630;2023-08-06T03:00:25;5.77;;;2.90;;
26106;SDS011;13866;50.748;12.630;2023-08-06T03:02:51;3.33;;;3.23;;
26106;SDS011;13866;50.748;12.630;2023-08-06T03:05:17;8.33;;;3.53;;
26106;SDS011;13866;50.748;12.630;2023-08-06T03:07:43;3.53;;;3.40;;
26106;SDS011;13866;50.748;12.630;2023-08-06T03:10:08;3.63;;;3.53;;
26106;SDS011;13866;50.748;12.630;2023-08-06T03:12:34;4.40;;;4.30;;
26106;SDS011;13866;50.748;12.630;2023-08-06T03:15:00;3.20;;;3.20;;
26106;SDS011;13866;50.748;12.630;2023-08-06T03:17:25;4.03;;;3.93;;
26106;SDS011;13866;50.748;12.630;2023-08-06T03:19:51;7.10;;;5.73;;
26106;SDS011;13866;50.748;12.630;2023-08-06T03:22:16;3.80;;;3.80;;
26106;SDS011;13866;50.748;12.630;2023-08-06T03:24:42;4.50;;;4.20;;
26106;SDS011;13866;50.748;12.630;2023-08-06T03:27:07;3.13;;;3.10;;
26106;SDS011;13866;50.748;12.630;2023-08-06T03:29:33;3.63;;;3.43;;
26106;SDS011;13866;50.748;12.630;2023-08-06T03:31:58;3.63;;;3.63;;
26106;SDS011;13866;50.748;12.630;2023-08-06T03:34:24;2.97;;;2.97;;
26106;SDS011;13866;50.748;12.630;2023-08-06T03:36:49;3.83;;;3.73;;
26106;SDS011;13866;50.748;12.630;2023-08-06T03:39:15;5.73;;;4.27;;
26106;SDS011;13866;50.748;12.630;2023-08-06T03:41:40;3.73;;;3.70;;
26106;SDS011;13866;50.748;12.630;2023-08-06T03:44:06;3.50;;;3.30;;
26106;SDS011;13866;50.748;12.630;2023-08-06T03:46:31;3.63;;;3.53;;
26106;SDS011;13866;50.748;12.630;2023-08-06T03:49:00;4.20;;;3.90;;
26106;SDS011;13866;50.748;12.630;2023-08-06T03:51:26;3.57;;;3.47;;
26106;SDS011;13866;50.748;12.630;2023-08-06T03:53:51;3.37;;;3.37;;
26106;SDS011;13866;50.748;12.630;2023-08-06T03:56:17;3.60;;;2.60;;
26106;SDS011;13866;50.748;12.630;2023-08-06T03:58:42;2.90;;;2.80;;
26106;SDS011;13866;50.748;12.630;2023-08-06T04:01:08;3.33;;;3.10;;
26106;SDS011;13866;50.748;12.630;2023-08-06T04:03:33;3.27;;;3.17;;
26106;SDS011;13866;50.748;12.630;2023-08-06T04:05:59;3.90;;;3.70;;
26106;SDS011;13866;50.748;12.630;2023-08-06T04:08:26;3.13;;;3.03;;
26106;SDS011;13866;50.748;12.630;2023-08-06T04:10:52;3.53;;;3.33;;
26106;SDS011;13866;50.748;12.630;2023-08-06T04:13:17;3.80;;;3.60;;
26106;SDS011;13866;50.748;12.630;2023-08-06T04:15:43;3.40;;;3.40;;
26106;SDS011;13866;50.748;12.630;2023-08-06T04:18:09;2.83;;;2.83;;
26106;SDS011;13866;50.748;12.630;2023-08-06T04:20:35;2.60;;;2.60;;
26106;SDS011;13866;50.748;12.630;2023-08-06T04:23:07;6.43;;;3.23;;
26106;SDS011;13866;50.748;12.630;2023-08-06T04:25:32;3.00;;;2.87;;
26106;SDS011;13866;50.748;12.630;2023-08-06T04:27:58;2.87;;;2.87;;
26106;SDS011;13866;50.748;12.630;2023-08-06T04:30:23;4.30;;;4.13;;
26106;SDS011;13866;50.748;12.630;2023-08-06T04:32:49;3.37;;;3.37;;
26106;SDS011;13866;50.748;12.630;2023-08-06T04:35:15;3.33;;;3.20;;
26106;SDS011;13866;50.748;12.630;2023-08-06T04:37:41;2.93;;;2.93;;
26106;SDS011;13866;50.748;12.630;2023-08-06T04:40:06;8.17;;;3.20;;
26106;SDS011;13866;50.748;12.630;2023-08-06T04:42:32;3.53;;;3.43;;
26106;SDS011;13866;50.748;12.630;2023-08-06T04:44:58;3.40;;;3.30;;
26106;SDS011;13866;50.748;12.630;2023-08-06T04:47:23;4.20;;;3.80;;
26106;SDS011;13866;50.748;12.630;2023-08-06T04:49:50;3.43;;;3.37;;
26106;SDS011;13866;50.748;12.630;2023-08-06T04:52:16;3.77;;;3.67;;
26106;SDS011;13866;50.748;12.630;2023-08-06T04:54:43;2.70;;;2.70;;
26106;SDS011;13866;50.748;12.630;2023-08-06T04:57:08;2.63;;;2.63;;
26106;SDS011;13866;50.748;12.630;2023-08-06T04:59:34;3.27;;;3.17;;
26106;SDS011;13866;50.748;12.630;2023-08-06T05:02:00;4.20;;;3.43;;
26106;SDS011;13866;50.748;12.630;2023-08-06T05:04:25;4.30;;;4.20;;
26106;SDS011;13866;50.748;12.630;2023-08-06T05:06:51;3.90;;;3.70;;
26106;SDS011;13866;50.748;12.630;2023-08-06T05:09:17;3.23;;;3.13;;
26106;SDS011;13866;50.748;12.630;2023-08-06T05:11:42;3.47;;;3.37;;
26106;SDS011;13866;50.748;12.630;2023-08-06T05:14:08;4.50;;;4.10;;
26106;SDS011;13866;50.748;12.630;2023-08-06T05:16:33;3.57;;;3.37;;
26106;SDS011;13866;50.748;12.630;2023-08-06T05:18:59;3.93;;;3.77;;
26106;SDS011;13866;50.748;12.630;2023-08-06T05:21:24;3.50;;;3.40;;
26106;SDS011;13866;50.748;12.630;2023-08-06T05:23:50;3.97;;;3.87;;
26106;SDS011;13866;50.748;12.630;2023-08-06T05:26:15;3.77;;;3.77;;
26106;SDS011;13866;50.748;12.630;2023-08-06T05:28:43;4.03;;;3.93;;
26106;SDS011;13866;50.748;12.630;2023-08-06T05:31:09;3.90;;;3.90;;
26106;SDS011;13866;50.748;12.630;2023-08-06T05:33:35;5.30;;;3.23;;
26106;SDS011;13866;50.748;12.630;2023-08-06T05:36:00;3.83;;;3.73;;
26106;SDS011;13866;50.748;12.630;2023-08-06T05:38:26;3.87;;;3.87;;
26106;SDS011;13866;50.748;12.630;2023-08-06T05:40:52;3.70;;;3.57;;
26106;SDS011;13866;50.748;12.630;2023-08-06T05:43:17;3.93;;;3.83;;
26106;SDS011;13866;50.748;12.630;2023-08-06T05:45:46;4.37;;;4.20;;
26106;SDS011;13866;50.748;12.630;2023-08-06T05:48:13;3.67;;;3.67;;
26106;SDS011;13866;50.748;12.630;2023-08-06T05:50:39;3.50;;;3.50;;
26106;SDS011;13866;50.748;12.630;2023-08-06T05:53:04;7.80;;;3.50;;
26106;SDS011;13866;50.748;12.630;2023-08-06T05:55:30;3.13;;;3.03;;
26106;SDS011;13866;50.748;12.630;2023-08-06T05:57:57;3.10;;;2.63;;
26106;SDS011;13866;50.748;12.630;2023-08-06T06:00:22;3.00;;;3.00;;
26106;SDS011;13866;50.748;12.630;2023-08-06T06:02:48;3.80;;;3.60;;
26106;SDS011;13866;50.748;12.630;2023-08-06T06:05:13;5.63;;;3.83;;
26106;SDS011;13866;50.748;12.630;2023-08-06T06:07:39;2.83;;;2.83;;
26106;SDS011;13866;50.748;12.630;2023-08-06T06:10:05;3.10;;;3.10;;
26106;SDS011;13866;50.748;12.630;2023-08-06T06:12:31;2.67;;;2.63;;
26106;SDS011;13866;50.748;12.630;2023-08-06T06:14:56;3.60;;;3.40;;
26106;SDS011;13866;50.748;12.630;2023-08-06T06:17:22;3.17;;;3.17;;
26106;SDS011;13866;50.748;12.630;2023-08-06T06:19:47;3.33;;;3.33;;
26106;SDS011;13866;50.748;12.630;2023-08-06T06:22:13;3.67;;;3.60;;
26106;SDS011;13866;50.748;12.630;2023-08-06T06:24:39;3.57;;;3.40;;
26106;SDS011;13866;50.748;12.630;2023-08-06T06:27:05;4.23;;;3.63;;
26106;SDS011;13866;50.748;12.630;2023-08-06T06:29:30;3.30;;;3.20;;
26106;SDS011;13866;50.748;12.630;2023-08-06T06:31:56;3.90;;;3.90;;
26106;SDS011;13866;50.748;12.630;2023-08-06T06:34:21;3.30;;;3.20;;
26106;SDS011;13866;50.748;12.630;2023-08-06T06:36:47;3.70;;;3.60;;
26106;SDS011;13866;50.748;12.630;2023-08-06T06:39:12;3.67;;;3.47;;
26106;SDS011;13866;50.748;12.630;2023-08-06T06:41:38;4.40;;;4.20;;
26106;SDS011;13866;50.748;12.630;2023-08-06T06:44:04;4.27;;;3.67;;
26106;SDS011;13866;50.748;12.630;2023-08-06T06:46:30;3.70;;;3.60;;
26106;SDS011;13866;50.748;12.630;2023-08-06T06:48:56;4.90;;;4.03;;
26106;SDS011;13866;50.748;12.630;2023-08-06T06:51:21;4.50;;;4.20;;
26106;SDS011;13866;50.748;12.630;2023-08-06T06:53:47;4.40;;;4.20;;
26106;SDS011;13866;50.748;12.630;2023-08-06T06:56:12;4.30;;;4.00;;
26106;SDS011;13866;50.748;12.630;2023-08-06T06:58:38;3.70;;;3.70;;
26106;SDS011;13866;50.748;12.630;2023-08-06T07:01:05;4.13;;;3.80;;
26106;SDS011;13866;50.748;12.630;2023-08-06T07:03:31;4.60;;;4.53;;
26106;SDS011;13866;50.748;12.630;2023-08-06T07:05:57;3.73;;;3.63;;
26106;SDS011;13866;50.748;12.630;2023-08-06T07:08:24;4.40;;;3.90;;
26106;SDS011;13866;50.748;12.630;2023-08-06T07:10:49;8.33;;;4.47;;
26106;SDS011;13866;50.748;12.630;2023-08-06T07:13:15;4.07;;;3.97;;
26106;SDS011;13866;50.748;12.630;2023-08-06T07:15:41;4.23;;;4.03;;
26106;SDS011;13866;50.748;12.630;2023-08-06T07:18:07;3.40;;;3.30;;
26106;SDS011;13866;50.748;12.630;2023-08-06T07:20:32;4.03;;;4.03;;
26106;SDS011;13866;50.748;12.630;2023-08-06T07:22:59;3.73;;;3.63;;
26106;SDS011;13866;50.748;12.630;2023-08-06T07:25:25;3.80;;;3.70;;
26106;SDS011;13866;50.748;12.630;2023-08-06T07:27:51;4.07;;;3.87;;
26106;SDS011;13866;50.748;12.630;2023-08-06T07:30:16;3.23;;;3.23;;
26106;SDS011;13866;50.748;12.630;2023-08-06T07:32:42;4.03;;;3.93;;
26106;SDS011;13866;50.748;12.630;2023-08-06T07:35:11;4.03;;;3.93;;
26106;SDS011;13866;50.748;12.630;2023-08-06T07:37:38;3.00;;;3.00;;
26106;SDS011;13866;50.748;12.630;2023-08-06T07:40:04;2.97;;;2.87;;
26106;SDS011;13866;50.748;12.630;2023-08-06T07:42:30;3.50;;;3.20;;
26106;SDS011;13866;50.748;12.630;2023-08-06T07:44:56;3.57;;;3.23;;
26106;SDS011;13866;50.748;12.630;2023-08-06T07:47:23;3.33;;;3.33;;
26106;SDS011;13866;50.748;12.630;2023-08-06T07:49:48;3.97;;;3.67;;
26106;SDS011;13866;50.748;12.630;2023-08-06T07:52:14;3.80;;;3.00;;
26106;SDS011;13866;50.748;12.630;2023-08-06T07:54:39;2.97;;;2.97;;
26106;SDS011;13866;50.748;12.630;2023-08-06T07:57:05;3.50;;;3.40;;
26106;SDS011;13866;50.748;12.630;2023-08-06T07:59:31;2.60;;;2.60;;
26106;SDS011;13866;50.748;12.630;2023-08-06T08:01:57;8.03;;;2.80;;
26106;SDS011;13866;50.748;12.630;2023-08-06T08:04:23;2.23;;;2.23;;
26106;SDS011;13866;50.748;12.630;2023-08-06T08:06:49;3.07;;;2.97;;
26106;SDS011;13866;50.748;12.630;2023-08-06T08:09:14;2.83;;;2.73;;
26106;SDS011;13866;50.748;12.630;2023-08-06T08:11:40;2.30;;;2.30;;
26106;SDS011;13866;50.748;12.630;2023-08-06T08:14:06;2.30;;;2.30;;
26106;SDS011;13866;50.748;12.630;2023-08-06T08:16:32;2.27;;;2.20;;
26106;SDS011;13866;50.748;12.630;2023-08-06T08:18:58;2.87;;;2.77;;
26106;SDS011;13866;50.748;12.630;2023-08-06T08:21:23;2.73;;;2.73;;
26106;SDS011;13866;50.748;12.630;2023-08-06T08:23:49;2.50;;;2.40;;
26106;SDS011;13866;50.748;12.630;2023-08-06T08:26:15;8.90;;;8.23;;
26106;SDS011;13866;50.748;12.630;2023-08-06T08:28:41;40.07;;;17.00;;
26106;SDS011;13866;50.748;12.630;2023-08-06T08:31:09;5.17;;;4.77;;
26106;SDS011;13866;50.748;12.630;2023-08-06T08:33:36;11.10;;;7.80;;
26106;SDS011;13866;50.748;12.630;2023-08-06T08:36:04;5.63;;;4.33;;
26106;SDS011;13866;50.748;12.630;2023-08-06T08:38:30;2.90;;;2.67;;
26106;SDS011;13866;50.748;12.630;2023-08-06T08:40:56;3.00;;;2.77;;
26106;SDS011;13866;50.748;12.630;2023-08-06T08:43:21;9.37;;;5.80;;
26106;SDS011;13866;50.748;12.630;2023-08-06T08:45:49;3.40;;;3.10;;
26106;SDS011;13866;50.748;12.630;2023-08-06T08:48:16;4.60;;;4.20;;
26106;SDS011;13866;50.748;12.630;2023-08-06T08:50:44;2.40;;;2.40;;
26106;SDS011;13866;50.748;12.630;2023-08-06T08:53:12;3.50;;;3.30;;
26106;SDS011;13866;50.748;12.630;2023-08-06T08:55:40;2.97;;;2.87;;
26106;SDS011;13866;50.748;12.630;2023-08-06T08:58:07;2.20;;;2.10;;
26106;SDS011;13866;50.748;12.630;2023-08-06T09:00:33;8.57;;;2.03;;
26106;SDS011;13866;50.748;12.630;2023-08-06T09:03:00;8.03;;;2.23;;
26106;SDS011;13866;50.748;12.630;2023-08-06T09:05:28;2.50;;;2.40;;
26106;SDS011;13866;50.748;12.630;2023-08-06T09:07:55;2.40;;;2.30;;
26106;SDS011;13866;50.748;12.630;2023-08-06T09:10:29;2.40;;;2.40;;
26106;SDS011;13866;50.748;12.630;2023-08-06T09:12:56;2.83;;;2.73;;
26106;SDS011;13866;50.748;12.630;2023-08-06T09:15:25;3.00;;;2.80;;
26106;SDS011;13866;50.748;12.630;2023-08-06T09:17:52;2.43;;;2.33;;
26106;SDS011;13866;50.748;12.630;2023-08-06T09:20:18;3.03;;;2.50;;
26106;SDS011;13866;50.748;12.630;2023-08-06T09:22:43;2.43;;;2.43;;
26106;SDS011;13866;50.748;12.630;2023-08-06T09:25:10;2.57;;;2.30;;
26106;SDS011;13866;50.748;12.630;2023-08-06T09:27:38;2.50;;;2.50;;
26106;SDS011;13866;50.748;12.630;2023-08-06T09:30:05;5.13;;;2.90;;
26106;SDS011;13866;50.748;12.630;2023-08-06T09:32:44;3.27;;;3.10;;
26106;SDS011;13866;50.748;12.630;2023-08-06T09:35:18;2.23;;;2.23;;
26106;SDS011;13866;50.748;12.630;2023-08-06T09:37:44;3.17;;;3.17;;
26106;SDS011;13866;50.748;12.630;2023-08-06T09:40:29;3.17;;;2.80;;
26106;SDS011;13866;50.748;12.630;2023-08-06T09:42:56;2.17;;;2.17;;
26106;SDS011;13866;50.748;12.630;2023-08-06T09:45:22;3.07;;;2.83;;
26106;SDS011;13866;50.748;12.630;2023-08-06T09:47:49;3.27;;;3.17;;
26106;SDS011;13866;50.748;12.630;2023-08-06T09:50:16;2.50;;;2.40;;
26106;SDS011;13866;50.748;12.630;2023-08-06T09:52:46;3.53;;;3.43;;
26106;SDS011;13866;50.748;12.630;2023-08-06T09:55:13;2.67;;;2.67;;
26106;SDS011;13866;50.748;12.630;2023-08-06T09:57:40;4.33;;;3.00;;
26106;SDS011;13866;50.748;12.630;2023-08-06T10:00:10;3.30;;;3.03;;
26106;SDS011;13866;50.748;12.630;2023-08-06T10:02:37;2.63;;;2.47;;
26106;SDS011;13866;50.748;12.630;2023-08-06T10:05:04;2.57;;;2.47;;
26106;SDS011;13866;50.748;12.630;2023-08-06T10:07:30;3.03;;;2.73;;
26106;SDS011;13866;50.748;12.630;2023-08-06T10:09:56;5.70;;;2.50;;
26106;SDS011;13866;50.748;12.630;2023-08-06T10:12:22;8.70;;;3.53;;
26106;SDS011;13866;50.748;12.630;2023-08-06T10:14:51;2.90;;;2.67;;
26106;SDS011;13866;50.748;12.630;2023-08-06T10:17:22;4.33;;;3.20;;
26106;SDS011;13866;50.748;12.630;2023-08-06T10:19:48;3.13;;;3.13;;
26106;SDS011;13866;50.748;12.630;2023-08-06T10:22:17;3.90;;;3.60;;
26106;SDS011;13866;50.748;12.630;2023-08-06T10:24:49;4.03;;;3.93;;
26106;SDS011;13866;50.748;12.630;2023-08-06T10:27:29;2.90;;;2.80;;
26106;SDS011;13866;50.748;12.630;2023-08-06T10:32:50;2.30;;;2.20;;
26106;SDS011;13866;50.748;12.630;2023-08-06T10:35:30;2.50;;;2.50;;
26106;SDS011;13866;50.748;12.630;2023-08-06T10:38:09;2.70;;;2.60;;
26106;SDS011;13866;50.748;12.630;2023-08-06T10:40:48;1.50;;;1.50;;
26106;SDS011;13866;50.748;12.630;2023-08-06T10:43:26;3.13;;;2.07;;
26106;SDS011;13866;50.748;12.630;2023-08-06T10:45:52;4.63;;;2.37;;
26106;SDS011;13866;50.748;12.630;2023-08-06T10:51:00;2.17;;;2.17;;
26106;SDS011;13866;50.748;12.630;2023-08-06T10:53:26;2.10;;;2.10;;
26106;SDS011;13866;50.748;12.630;2023-08-06T10:55:52;2.20;;;2.20;;
26106;SDS011;13866;50.748;12.630;2023-08-06T10:58:17;2.50;;;2.40;;
26106;SDS011;13866;50.748;12.630;2023-08-06T11:00:43;2.60;;;2.60;;
26106;SDS011;13866;50.748;12.630;2023-08-06T11:03:08;2.53;;;2.43;;
26106;SDS011;13866;50.748;12.630;2023-08-06T11:05:34;2.93;;;2.80;;
26106;SDS011;13866;50.748;12.630;2023-08-06T11:08:00;14.83;;;3.07;;
26106;SDS011;13866;50.748;12.630;2023-08-06T11:10:26;2.23;;;2.10;;
26106;SDS011;13866;50.748;12.630;2023-08-06T11:12:51;2.50;;;2.40;;
26106;SDS011;13866;50.748;12.630;2023-08-06T11:15:17;2.10;;;2.00;;
26106;SDS011;13866;50.748;12.630;2023-08-06T11:17:45;2.50;;;1.80;;
26106;SDS011;13866;50.748;12.630;2023-08-06T11:20:10;1.90;;;1.90;;
26106;SDS011;13866;50.748;12.630;2023-08-06T11:22:36;3.50;;;2.07;;
26106;SDS011;13866;50.748;12.630;2023-08-06T11:25:04;1.70;;;1.60;;
26106;SDS011;13866;50.748;12.630;2023-08-06T11:27:31;1.30;;;1.30;;
26106;SDS011;13866;50.748;12.630;2023-08-06T11:29:56;1.93;;;1.93;;
26106;SDS011;13866;50.748;12.630;2023-08-06T11:32:22;1.83;;;1.83;;
26106;SDS011;13866;50.748;12.630;2023-08-06T11:34:48;2.17;;;1.97;;
26106;SDS011;13866;50.748;12.630;2023-08-06T11:37:13;2.40;;;1.70;;
26106;SDS011;13866;50.748;12.630;2023-08-06T11:39:39;2.40;;;2.40;;
26106;SDS011;13866;50.748;12.630;2023-08-06T11:42:11;2.37;;;2.17;;
26106;SDS011;13866;50.748;12.630;2023-08-06T11:44:37;2.10;;;1.90;;
26106;SDS011;13866;50.748;12.630;2023-08-06T11:47:03;1.40;;;1.40;;
26106;SDS011;13866;50.748;12.630;2023-08-06T11:54:37;1.83;;;1.83;;
26106;SDS011;13866;50.748;12.630;2023-08-06T11:57:05;2.80;;;2.60;;
26106;SDS011;13866;50.748;12.630;2023-08-06T11:59:30;1.43;;;1.43;;
26106;SDS011;13866;50.748;12.630;2023-08-06T12:01:56;1.80;;;1.80;;
26106;SDS011;13866;50.748;12.630;2023-08-06T12:04:21;2.10;;;1.17;;
26106;SDS011;13866;50.748;12.630;2023-08-06T12:06:47;1.20;;;1.20;;
26106;SDS011;13866;50.748;12.630;2023-08-06T12:09:12;3.07;;;1.50;;
26106;SDS011;13866;50.748;12.630;2023-08-06T12:11:38;1.67;;;1.67;;
26106;SDS011;13866;50.748;12.630;2023-08-06T12:14:03;1.17;;;1.17;;
26106;SDS011;13866;50.748;12.630;2023-08-06T12:16:29;1.40;;;1.30;;
26106;SDS011;13866;50.748;12.630;2023-08-06T12:18:54;1.50;;;1.50;;
26106;SDS011;13866;50.748;12.630;2023-08-06T12:21:20;1.70;;;1.70;;
26106;SDS011;13866;50.748;12.630;2023-08-06T12:23:45;2.50;;;2.33;;
26106;SDS011;13866;50.748;12.630;2023-08-06T12:26:11;1.73;;;1.73;;
26106;SDS011;13866;50.748;12.630;2023-08-06T12:28:36;3.30;;;3.10;;
26106;SDS011;13866;50.748;12.630;2023-08-06T12:31:02;2.30;;;2.10;;
26106;SDS011;13866;50.748;12.630;2023-08-06T12:33:27;1.93;;;1.73;;
26106;SDS011;13866;50.748;12.630;2023-08-06T12:35:53;1.70;;;1.70;;
26106;SDS011;13866;50.748;12.630;2023-08-06T12:38:19;1.60;;;1.60;;
26106;SDS011;13866;50.748;12.630;2023-08-06T12:40:45;1.27;;;1.27;;
26106;SDS011;13866;50.748;12.630;2023-08-06T12:43:11;2.20;;;2.20;;
26106;SDS011;13866;50.748;12.630;2023-08-06T12:45:36;1.60;;;1.60;;
26106;SDS011;13866;50.748;12.630;2023-08-06T12:48:02;3.73;;;2.17;;
26106;SDS011;13866;50.748;12.630;2023-08-06T12:50:28;1.87;;;1.87;;
26106;SDS011;13866;50.748;12.630;2023-08-06T12:52:54;5.60;;;1.73;;
26106;SDS011;13866;50.748;12.630;2023-08-06T12:55:19;1.33;;;1.33;;
26106;SDS011;13866;50.748;12.630;2023-08-06T12:57:45;7.03;;;1.80;;
26106;SDS011;13866;50.748;12.630;2023-08-06T13:00:10;4.60;;;4.50;;
26106;SDS011;13866;50.748;12.630;2023-08-06T13:02:37;1.77;;;1.67;;
26106;SDS011;13866;50.748;12.630;2023-08-06T13:05:02;4.10;;;1.70;;
26106;SDS011;13866;50.748;12.630;2023-08-06T13:07:30;2.10;;;2.00;;
26106;SDS011;13866;50.748;12.630;2023-08-06T13:09:56;1.63;;;1.63;;
26106;SDS011;13866;50.748;12.630;2023-08-06T13:12:21;1.80;;;1.70;;
26106;SDS011;13866;50.748;12.630;2023-08-06T13:14:48;1.83;;;1.67;;
26106;SDS011;13866;50.748;12.630;2023-08-06T13:17:13;1.70;;;1.70;;
26106;SDS011;13866;50.748;12.630;2023-08-06T13:19:39;2.47;;;2.27;;
26106;SDS011;13866;50.748;12.630;2023-08-06T13:22:05;1.40;;;1.30;;
26106;SDS011;13866;50.748;12.630;2023-08-06T13:24:33;1.30;;;1.30;;
26106;SDS011;13866;50.748;12.630;2023-08-06T13:26:59;1.50;;;1.40;;
26106;SDS011;13866;50.748;12.630;2023-08-06T13:29:25;1.60;;;1.60;;
26106;SDS011;13866;50.748;12.630;2023-08-06T13:31:52;1.30;;;1.30;;
26106;SDS011;13866;50.748;12.630;2023-08-06T13:34:17;1.20;;;1.20;;
26106;SDS011;13866;50.748;12.630;2023-08-06T13:36:43;2.57;;;1.27;;
26106;SDS011;13866;50.748;12.630;2023-08-06T13:39:09;1.00;;;1.00;;
26106;SDS011;13866;50.748;12.630;2023-08-06T13:41:34;1.33;;;1.10;;
26106;SDS011;13866;50.748;12.630;2023-08-06T13:44:00;0.90;;;0.90;;
26106;SDS011;13866;50.748;12.630;2023-08-06T13:46:25;1.47;;;1.37;;
26106;SDS011;13866;50.748;12.630;2023-08-06T13:48:51;1.10;;;1.07;;
26106;SDS011;13866;50.748;12.630;2023-08-06T13:51:16;1.40;;;1.23;;
26106;SDS011;13866;50.748;12.630;2023-08-06T13:53:42;1.07;;;1.07;;
26106;SDS011;13866;50.748;12.630;2023-08-06T13:56:09;1.20;;;1.20;;
26106;SDS011;13866;50.748;12.630;2023-08-06T13:58:36;1.67;;;1.07;;
26106;SDS011;13866;50.748;12.630;2023-08-06T14:01:01;0.90;;;0.90;;
26106;SDS011;13866;50.748;12.630;2023-08-06T14:03:28;0.93;;;0.90;;
26106;SDS011;13866;50.748;12.630;2023-08-06T14:05:53;0.90;;;0.90;;
26106;SDS011;13866;50.748;12.630;2023-08-06T14:08:22;1.30;;;1.30;;
26106;SDS011;13866;50.748;12.630;2023-08-06T14:10:49;0.80;;;0.80;;
26106;SDS011;13866;50.748;12.630;2023-08-06T14:13:15;2.30;;;0.80;;
26106;SDS011;13866;50.748;12.630;2023-08-06T14:15:40;0.90;;;0.90;;
26106;SDS011;13866;50.748;12.630;2023-08-06T14:18:06;4.03;;;1.10;;
26106;SDS011;13866;50.748;12.630;2023-08-06T14:20:35;0.80;;;0.80;;
26106;SDS011;13866;50.748;12.630;2023-08-06T14:23:00;0.80;;;0.80;;
26106;SDS011;13866;50.748;12.630;2023-08-06T14:25:26;0.50;;;0.50;;
26106;SDS011;13866;50.748;12.630;2023-08-06T14:27:52;0.60;;;0.60;;
26106;SDS011;13866;50.748;12.630;2023-08-06T14:30:17;1.03;;;1.03;;
26106;SDS011;13866;50.748;12.630;2023-08-06T14:32:43;1.03;;;0.90;;
26106;SDS011;13866;50.748;12.630;2023-08-06T14:35:09;0.87;;;0.87;;
26106;SDS011;13866;50.748;12.630;2023-08-06T14:37:34;1.80;;;1.10;;
26106;SDS011;13866;50.748;12.630;2023-08-06T14:40:00;1.00;;;1.00;;
26106;SDS011;13866;50.748;12.630;2023-08-06T14:42:25;0.80;;;0.80;;
26106;SDS011;13866;50.748;12.630;2023-08-06T14:44:51;0.97;;;0.97;;